Time;durP1;ratioP1;P1;durP2;ratioP2;P2;SDS_P1;SDS_P2;PMS_P1;PMS_P2;Temp;Humidity;BMP_temperature;BMP_pressure;BME280_temperature;BME280_humidity;BME280_pressure;Samples;Min_cycle;Max_cycle;Signal;HPM_P1;HPM_P2
2024/01/23 00:02:07;;;;;;;7.20;2.03;;;;;;;6.38;82.17;96102.00;5016010;28;20193;-76
2024/01/23 00:04:33;;;;;;;5.47;1.60;;;;;;;6.42;82.01;96105.19;5012875;28;20535;-76
2024/01/23 00:06:58;;;;;;;5.00;1.20;;;;;;;6.25;83.02;96089.13;5033545;28;20694;-76
2024/01/23 00:09:23;;;;;;;6.67;1.73;;;;;;;6.32;82.36;96083.56;5014818;28;20806;-76
2024/01/23 00:11:49;;;;;;;7.20;1.67;;;;;;;6.29;82.29;96083.78;5011471;28;20193;-76
2024/01/23 00:14:14;;;;;;;6.43;1.63;;;;;;;6.14;82.69;96077.94;5032327;28;20183;-76
2024/01/23 00:16:39;;;;;;;7.50;1.87;;;;;;;6.35;82.11;96084.16;5032310;28;20892;-76
2024/01/23 00:19:04;;;;;;;6.07;1.57;;;;;;;6.22;82.41;96079.03;5036238;28;20187;-76
2024/01/23 00:21:30;;;;;;;8.47;1.83;;;;;;;6.10;82.44;96079.09;5033109;28;20182;-76
2024/01/23 00:23:55;;;;;;;7.43;1.63;;;;;;;6.26;82.12;96079.63;5006227;28;20225;-76
2024/01/23 00:26:21;;;;;;;6.80;1.57;;;;;;;6.18;81.99;96076.78;5015635;28;20197;-76
2024/01/23 00:28:46;;;;;;;6.70;1.30;;;;;;;6.25;81.69;96086.56;5033442;28;20202;-76
2024/01/23 00:31:11;;;;;;;6.30;1.40;;;;;;;6.24;81.92;96078.94;5015065;28;20214;-76
2024/01/23 00:33:37;;;;;;;7.17;1.80;;;;;;;6.29;82.78;96082.03;5014965;28;20205;-76
2024/01/23 00:36:03;;;;;;;6.37;1.17;;;;;;;6.25;83.49;96088.31;5036234;28;20240;-76
2024/01/23 00:38:29;;;;;;;7.93;1.80;;;;;;;6.05;84.30;96088.88;5019754;28;20605;-76
2024/01/23 00:40:54;;;;;;;7.57;1.60;;;;;;;6.27;84.24;96089.03;5031372;28;20206;-76
2024/01/23 00:43:19;;;;;;;5.23;1.50;;;;;;;6.29;83.95;96099.25;5015403;28;20289;-76
2024/01/23 00:45:45;;;;;;;5.07;2.23;;;;;;;6.17;83.72;96093.19;5006816;28;20186;-76
2024/01/23 00:48:10;;;;;;;3.10;1.27;;;;;;;6.16;83.99;96105.25;5008988;28;20264;-76
2024/01/23 00:50:35;;;;;;;5.93;1.53;;;;;;;5.95;84.69;96105.00;5031478;28;20214;-76
2024/01/23 00:53:00;;;;;;;4.63;1.20;;;;;;;6.13;84.69;96122.72;5031673;28;20291;-76
2024/01/23 00:55:26;;;;;;;10.97;1.40;;;;;;;6.04;85.00;96113.03;5032768;28;20300;-76
2024/01/23 00:57:51;;;;;;;9.33;2.17;;;;;;;6.12;84.77;96129.63;5031621;28;20227;-76
2024/01/23 01:00:16;;;;;;;7.67;1.70;;;;;;;6.20;84.79;96118.78;5004567;28;20206;-76
2024/01/23 01:02:42;;;;;;;7.33;1.57;;;;;;;6.18;84.36;96118.03;5032802;28;20190;-76
2024/01/23 01:05:07;;;;;;;7.63;1.70;;;;;;;5.88;85.05;96124.34;5014683;28;20186;-76
2024/01/23 01:07:32;;;;;;;9.00;1.60;;;;;;;5.91;84.73;96123.34;5032577;28;20670;-76
2024/01/23 01:09:58;;;;;;;7.80;1.60;;;;;;;5.89;85.30;96117.44;5013384;28;20217;-76
2024/01/23 01:12:23;;;;;;;5.43;1.50;;;;;;;5.85;85.06;96114.25;4998286;28;20190;-76
2024/01/23 01:14:48;;;;;;;4.70;1.47;;;;;;;5.88;85.21;96137.25;5032402;28;20186;-76
2024/01/23 01:17:14;;;;;;;6.53;1.40;;;;;;;5.96;85.18;96118.72;5032599;28;20726;-76
2024/01/23 01:19:39;;;;;;;10.23;2.67;;;;;;;5.81;85.92;96136.00;5030489;28;20206;-76
2024/01/23 01:22:05;;;;;;;9.37;1.60;;;;;;;5.98;85.80;96147.78;5013471;28;20222;-76
2024/01/23 01:24:31;;;;;;;8.80;1.77;;;;;;;6.02;85.77;96140.69;5032470;28;20686;-76
2024/01/23 01:26:56;;;;;;;8.80;1.87;;;;;;;5.92;86.31;96143.88;5014776;28;20214;-76
2024/01/23 01:29:22;;;;;;;6.40;1.73;;;;;;;5.80;86.93;96142.09;4998059;28;20214;-76
2024/01/23 01:31:47;;;;;;;6.90;2.20;;;;;;;5.80;86.63;96144.66;5014678;28;20239;-76
2024/01/23 01:34:12;;;;;;;8.57;1.90;;;;;;;5.72;87.28;96152.09;5014450;28;20194;-76
2024/01/23 01:36:38;;;;;;;11.00;2.03;;;;;;;5.79;87.38;96150.75;5014372;28;20183;-76
2024/01/23 01:39:03;;;;;;;8.57;2.63;;;;;;;5.57;87.33;96145.41;5012781;28;20203;-76
2024/01/23 01:41:28;;;;;;;7.43;2.30;;;;;;;5.69;87.21;96172.91;5004954;28;20186;-76
2024/01/23 01:43:54;;;;;;;12.10;2.00;;;;;;;5.67;86.62;96149.00;5014205;28;20277;-76
2024/01/23 01:46:26;;;;;;;10.50;2.10;;;;;;;5.97;85.47;96169.34;5032044;28;20182;-76
2024/01/23 01:48:52;;;;;;;11.17;2.30;;;;;;;5.82;85.82;96158.28;5006597;28;20214;-76
2024/01/23 01:51:20;;;;;;;10.57;2.47;;;;;;;5.71;86.04;96162.50;4994030;28;20852;-76
2024/01/23 01:53:46;;;;;;;13.13;2.50;;;;;;;5.80;86.09;96165.28;5014004;28;20271;-76
2024/01/23 01:56:11;;;;;;;15.87;2.50;;;;;;;5.87;85.90;96158.78;5014210;28;20278;-76
2024/01/23 01:58:39;;;;;;;15.70;2.30;;;;;;;5.95;86.05;96169.44;5030834;28;20656;-76
2024/01/23 02:01:04;;;;;;;13.67;2.40;;;;;;;5.89;86.46;96167.25;5012551;28;20216;-75
2024/01/23 02:03:29;;;;;;;10.37;2.50;;;;;;;5.69;87.12;96173.75;5030728;28;20182;-76
2024/01/23 02:05:59;;;;;;;12.67;2.63;;;;;;;5.77;87.01;96164.69;5013380;28;20198;-76
2024/01/23 02:08:24;;;;;;;10.50;2.50;;;;;;;5.71;86.28;96189.09;4996037;28;20242;-75
2024/01/23 02:10:49;;;;;;;11.27;2.50;;;;;;;5.83;85.70;96210.63;5013450;28;20261;-76
2024/01/23 02:13:15;;;;;;;16.10;2.80;;;;;;;5.86;84.82;96187.25;5013281;28;20190;-76
2024/01/23 02:15:40;;;;;;;10.73;2.67;;;;;;;5.82;84.61;96198.69;5031174;28;20694;-76
2024/01/23 02:18:05;;;;;;;11.27;2.60;;;;;;;5.61;84.94;96190.63;5013942;28;20718;-76
2024/01/23 02:20:31;;;;;;;14.13;2.30;;;;;;;5.81;84.39;96190.13;5030768;28;20209;-76
2024/01/23 02:22:57;;;;;;;15.77;2.50;;;;;;;5.66;84.55;96188.59;5030167;28;20196;-76
2024/01/23 02:25:22;;;;;;;17.77;2.57;;;;;;;5.69;84.90;96190.97;5030123;28;20183;-75
2024/01/23 02:27:47;;;;;;;18.47;4.20;;;;;;;5.73;84.10;96200.13;5030217;28;20206;-76
2024/01/23 02:30:13;;;;;;;16.57;2.77;;;;;;;5.74;83.21;96204.34;5012738;28;20206;-76
2024/01/23 02:32:45;;;;;;;14.17;2.60;;;;;;;5.73;83.06;96189.81;5013573;28;20202;-76
2024/01/23 02:35:11;;;;;;;12.83;2.50;;;;;;;5.65;83.03;96198.06;5008793;28;20190;-76
2024/01/23 02:37:36;;;;;;;10.20;2.53;;;;;;;5.78;81.96;96192.09;5031087;28;20236;-76
2024/01/23 02:40:03;;;;;;;9.87;2.37;;;;;;;5.85;81.68;96188.19;5012677;28;20712;-76
2024/01/23 02:42:28;;;;;;;15.63;3.43;;;;;;;5.85;81.63;96196.75;5029725;28;20197;-76
2024/01/23 02:44:53;;;;;;;9.80;2.23;;;;;;;5.83;81.74;96190.03;5013032;28;20697;-76
2024/01/23 02:47:20;;;;;;;14.87;2.97;;;;;;;5.74;81.56;96186.31;5030934;28;20671;-75
2024/01/23 02:49:45;;;;;;;14.63;2.53;;;;;;;5.79;80.80;96194.56;5030366;28;20230;-76
2024/01/23 02:52:11;;;;;;;15.63;3.23;;;;;;;5.80;81.78;96206.53;5030859;28;20246;-75
2024/01/23 02:54:36;;;;;;;10.77;2.50;;;;;;;5.80;81.47;96213.44;5002805;28;20190;-76
2024/01/23 02:57:02;;;;;;;12.53;2.30;;;;;;;5.96;80.67;96199.44;5013070;28;20662;-76
2024/01/23 02:59:27;;;;;;;12.87;2.80;;;;;;;5.82;80.55;96216.72;5012480;28;20684;-76
2024/01/23 03:01:52;;;;;;;14.27;2.60;;;;;;;5.81;80.27;96204.78;5012942;28;20668;-76
2024/01/23 03:04:17;;;;;;;14.90;3.03;;;;;;;5.92;80.32;96195.44;5030217;28;20206;-76
2024/01/23 03:06:43;;;;;;;15.47;2.90;;;;;;;5.88;79.85;96193.13;5012679;28;20186;-76
2024/01/23 03:09:10;;;;;;;16.37;2.63;;;;;;;5.83;80.15;96196.03;5030644;28;20193;-76
2024/01/23 03:11:36;;;;;;;15.53;2.47;;;;;;;5.82;79.17;96203.84;5009007;28;20566;-76
2024/01/23 03:14:02;;;;;;;9.43;2.50;;;;;;;5.86;78.99;96200.16;5006941;28;20401;-76
2024/01/23 03:16:28;;;;;;;16.77;3.00;;;;;;;5.96;79.31;96203.78;5029185;28;20285;-76
2024/01/23 03:18:53;;;;;;;17.07;3.43;;;;;;;5.99;79.27;96218.22;5012660;28;20194;-76
2024/01/23 03:21:19;;;;;;;18.97;2.53;;;;;;;5.87;79.08;96222.41;5006205;28;20213;-76
2024/01/23 03:23:44;;;;;;;13.17;3.43;;;;;;;5.88;79.26;96237.78;5012546;28;20190;-76
2024/01/23 03:26:09;;;;;;;24.33;3.83;;;;;;;5.97;79.02;96220.91;5012717;28;20225;-76
2024/01/23 03:28:34;;;;;;;13.83;2.73;;;;;;;6.12;78.65;96252.56;5025454;28;20701;-76
2024/01/23 03:31:00;;;;;;;11.83;2.33;;;;;;;5.98;79.81;96240.59;5029624;28;20641;-76
2024/01/23 03:33:25;;;;;;;14.47;2.70;;;;;;;5.90;78.67;96243.69;5013842;28;20243;-76
2024/01/23 03:35:50;;;;;;;12.50;2.27;;;;;;;6.15;77.96;96242.88;5015815;28;20276;-76
2024/01/23 03:38:16;;;;;;;16.37;3.23;;;;;;;5.97;78.87;96262.16;5034223;28;20271;-76
2024/01/23 03:40:41;;;;;;;14.20;3.10;;;;;;;6.04;78.89;96270.31;5032463;28;20733;-76
2024/01/23 03:43:06;;;;;;;9.57;2.73;;;;;;;6.15;77.97;96263.50;5034148;28;20189;-76
2024/01/23 03:45:32;;;;;;;11.87;2.67;;;;;;;6.12;77.78;96262.88;5016384;28;20285;-76
2024/01/23 03:47:57;;;;;;;14.57;2.63;;;;;;;6.00;78.40;96246.47;5016112;28;20602;-76
2024/01/23 03:50:23;;;;;;;14.80;3.33;;;;;;;6.04;78.59;96281.44;5001312;28;20730;-77
2024/01/23 03:52:48;;;;;;;13.90;3.43;;;;;;;6.06;78.56;96251.22;5016331;28;20213;-76
2024/01/23 03:55:14;;;;;;;11.47;2.57;;;;;;;6.05;78.60;96272.78;5015899;28;20613;-76
2024/01/23 03:57:39;;;;;;;14.73;2.80;;;;;;;6.11;78.79;96281.88;5033817;28;20183;-76
2024/01/23 04:00:06;;;;;;;11.67;3.20;;;;;;;5.97;78.71;96293.91;4998450;28;20680;-76
2024/01/23 04:02:36;;;;;;;14.10;2.43;;;;;;;5.91;78.78;96301.22;5034041;28;20186;-76
2024/01/23 04:05:05;;;;;;;14.33;3.13;;;;;;;6.03;79.44;96294.44;5033318;28;20202;-76
2024/01/23 04:07:34;;;;;;;14.13;2.50;;;;;;;6.02;79.56;96297.94;5014054;28;20210;-76
2024/01/23 04:10:04;;;;;;;16.87;2.73;;;;;;;6.02;79.80;96292.78;5014899;28;20723;-76
2024/01/23 04:12:29;;;;;;;12.37;2.70;;;;;;;6.18;79.53;96283.09;5016026;28;20190;-76
2024/01/23 04:14:54;;;;;;;13.00;3.20;;;;;;;6.11;80.24;96297.34;5015668;28;20775;-76
2024/01/23 04:17:20;;;;;;;14.93;2.60;;;;;;;5.94;80.31;96280.41;5006874;28;20179;-76
2024/01/23 04:19:45;;;;;;;6.63;2.10;;;;;;;5.96;80.85;96288.84;5031571;28;20687;-76
2024/01/23 04:22:11;;;;;;;14.40;2.87;;;;;;;6.08;80.58;96300.94;5015801;28;20207;-76
2024/01/23 04:24:37;;;;;;;13.17;2.57;;;;;;;5.94;81.67;96296.69;5032342;28;20193;-76
2024/01/23 04:27:03;;;;;;;15.30;2.60;;;;;;;5.91;82.09;96301.22;5045893;28;20209;-76
2024/01/23 04:29:29;;;;;;;7.47;1.90;;;;;;;5.89;82.72;96308.19;5032970;28;20596;-76
2024/01/23 04:31:54;;;;;;;17.60;2.63;;;;;;;5.99;82.08;96313.59;5032051;28;20192;-76
2024/01/23 04:34:19;;;;;;;12.47;2.43;;;;;;;5.83;82.29;96324.06;5031996;28;20196;-76
2024/01/23 04:36:45;;;;;;;9.93;2.20;;;;;;;5.84;82.74;96330.88;5033143;28;20187;-76
2024/01/23 04:39:10;;;;;;;6.90;2.10;;;;;;;5.77;83.41;96330.44;5033018;28;20656;-76
2024/01/23 04:41:35;;;;;;;10.83;1.73;;;;;;;5.62;83.81;96347.72;5031540;28;20201;-76
2024/01/23 04:44:01;;;;;;;12.10;2.23;;;;;;;5.80;83.50;96355.19;5015247;28;20230;-76
2024/01/23 04:46:26;;;;;;;12.47;2.83;;;;;;;5.67;84.18;96344.84;5015439;28;20237;-76
2024/01/23 04:48:51;;;;;;;7.13;1.80;;;;;;;5.81;83.46;96355.09;5015047;28;20293;-76
2024/01/23 04:51:17;;;;;;;13.17;2.43;;;;;;;5.66;83.08;96366.41;5001569;28;20217;-76
2024/01/23 04:53:42;;;;;;;12.80;2.23;;;;;;;5.77;82.88;96369.09;5031725;28;20205;-76
2024/01/23 04:56:07;;;;;;;10.10;1.90;;;;;;;5.35;84.14;96358.00;4998922;28;20201;-76
2024/01/23 04:58:32;;;;;;;8.10;2.07;;;;;;;5.72;83.50;96360.81;5015084;28;20190;-76
2024/01/23 05:00:58;;;;;;;9.27;2.00;;;;;;;5.73;83.72;96349.59;5002871;28;20225;-76
2024/01/23 05:03:23;;;;;;;8.77;1.77;;;;;;;5.55;84.41;96341.28;5015114;28;20198;-76
2024/01/23 05:05:48;;;;;;;7.60;1.63;;;;;;;5.43;84.89;96361.84;5012691;28;20193;-76
2024/01/23 05:08:15;;;;;;;7.90;2.17;;;;;;;5.38;85.27;96356.97;5014967;28;20648;-76
2024/01/23 05:10:41;;;;;;;10.83;1.70;;;;;;;5.24;85.44;96363.00;5006028;28;20672;-76
2024/01/23 05:13:07;;;;;;;8.00;1.63;;;;;;;5.33;85.35;96370.16;5012993;28;20190;-76
2024/01/23 05:15:32;;;;;;;8.93;2.23;;;;;;;5.17;85.91;96391.81;5005106;28;20198;-76
2024/01/23 05:17:57;;;;;;;8.40;1.73;;;;;;;5.32;85.20;96396.84;5030620;28;20281;-76
2024/01/23 05:20:23;;;;;;;6.77;1.83;;;;;;;5.28;85.84;96410.00;5013719;28;20226;-76
2024/01/23 05:22:48;;;;;;;12.17;1.87;;;;;;;5.40;85.10;96399.78;5011732;28;20217;-76
2024/01/23 05:25:14;;;;;;;8.43;1.97;;;;;;;5.18;86.20;96412.31;4999654;28;20198;-77
2024/01/23 05:27:39;;;;;;;8.17;1.83;;;;;;;5.25;85.87;96410.19;5014356;28;20628;-76
2024/01/23 05:30:06;;;;;;;6.00;1.53;;;;;;;5.29;85.97;96420.19;5017257;28;20728;-76
2024/01/23 05:32:32;;;;;;;7.23;1.90;;;;;;;5.14;86.73;96423.72;5032113;28;20181;-76
2024/01/23 05:34:57;;;;;;;7.83;1.43;;;;;;;5.27;85.95;96411.75;5030375;28;20195;-76
2024/01/23 05:37:25;;;;;;;8.37;1.97;;;;;;;5.30;85.86;96421.88;5030769;28;20236;-76
2024/01/23 05:39:50;;;;;;;7.17;1.50;;;;;;;5.27;86.22;96429.75;5008343;28;20300;-76
2024/01/23 05:42:16;;;;;;;7.00;1.90;;;;;;;5.18;86.73;96432.06;5016284;28;20278;-76
2024/01/23 05:44:41;;;;;;;6.63;1.50;;;;;;;5.26;86.30;96437.59;4997793;28;20197;-76
2024/01/23 05:47:06;;;;;;;9.03;1.37;;;;;;;5.21;86.70;96445.63;5013776;28;20202;-76
2024/01/23 05:49:32;;;;;;;6.37;1.43;;;;;;;5.20;87.08;96456.81;5012758;28;20210;-76
2024/01/23 05:51:57;;;;;;;6.40;1.80;;;;;;;5.24;87.45;96450.56;5013237;28;20193;-76
2024/01/23 05:54:22;;;;;;;7.93;1.83;;;;;;;5.35;86.78;96458.47;5013258;28;20677;-76
2024/01/23 05:56:48;;;;;;;5.70;1.67;;;;;;;5.30;87.32;96464.78;5031179;28;20228;-76
2024/01/23 05:59:13;;;;;;;4.57;1.27;;;;;;;5.19;88.44;96468.03;5013117;28;20599;-76
2024/01/23 06:01:38;;;;;;;9.70;1.60;;;;;;;5.32;87.65;96462.97;5012958;28;20221;-77
2024/01/23 06:04:04;;;;;;;6.57;1.70;;;;;;;5.29;88.55;96463.97;5011287;28;20201;-76
2024/01/23 06:06:29;;;;;;;8.47;1.83;;;;;;;5.25;88.47;96453.97;5010530;28;20240;-76
2024/01/23 06:08:54;;;;;;;6.93;1.83;;;;;;;5.09;89.27;96472.91;5030247;28;20206;-77
2024/01/23 06:11:20;;;;;;;5.97;1.43;;;;;;;4.99;89.89;96460.69;5017450;28;20343;-76
2024/01/23 06:13:45;;;;;;;3.07;1.10;;;;;;;4.92;90.12;96474.81;5031016;28;20266;-76
2024/01/23 06:16:11;;;;;;;8.50;1.47;;;;;;;5.11;90.14;96470.22;5030091;28;20264;-76
2024/01/23 06:18:36;;;;;;;9.40;1.20;;;;;;;5.05;90.51;96492.03;4997537;28;20610;-76
2024/01/23 06:21:04;;;;;;;4.60;1.50;;;;;;;4.93;90.98;96497.06;5012672;28;20769;-76
2024/01/23 06:23:30;;;;;;;4.93;1.70;;;;;;;4.95;91.30;96492.69;5012813;28;20214;-76
2024/01/23 06:25:55;;;;;;;5.53;1.70;;;;;;;4.89;91.22;96499.00;5032059;28;20254;-77
2024/01/23 06:28:23;;;;;;;7.57;1.60;;;;;;;4.86;91.95;96503.47;5013012;28;20207;-77
2024/01/23 06:30:48;;;;;;;9.13;1.60;;;;;;;4.84;91.86;96504.41;4996833;28;20209;-77
2024/01/23 06:33:13;;;;;;;5.07;1.23;;;;;;;4.91;91.31;96528.03;5014096;28;20189;-77
2024/01/23 06:35:38;;;;;;;9.53;2.23;;;;;;;4.84;90.74;96537.84;5031899;28;20202;-77
2024/01/23 06:38:04;;;;;;;7.80;1.60;;;;;;;4.59;90.90;96536.78;4998000;28;20193;-77
2024/01/23 06:40:29;;;;;;;10.07;2.47;;;;;;;4.70;89.17;96555.03;5031173;28;20222;-77
2024/01/23 06:42:54;;;;;;;11.33;1.90;;;;;;;4.76;88.36;96552.91;5014271;28;20285;-76
2024/01/23 06:45:20;;;;;;;10.03;1.83;;;;;;;4.61;89.30;96552.97;5031973;28;20194;-77
2024/01/23 06:47:45;;;;;;;7.73;2.00;;;;;;;4.77;88.98;96567.47;5008464;28;20213;-77
2024/01/23 06:50:11;;;;;;;7.47;1.60;;;;;;;4.73;89.17;96576.25;5013271;28;20214;-77
2024/01/23 06:52:37;;;;;;;9.87;2.70;;;;;;;4.66;89.26;96571.53;4997912;28;20200;-77
2024/01/23 06:55:03;;;;;;;11.77;1.80;;;;;;;4.73;88.76;96589.13;5011112;28;20190;-77
2024/01/23 06:57:28;;;;;;;7.80;1.63;;;;;;;4.75;88.62;96595.00;5023409;28;20190;-77
2024/01/23 06:59:53;;;;;;;7.70;1.97;;;;;;;4.78;87.14;96612.03;5030714;28;20211;-77
2024/01/23 07:02:19;;;;;;;13.77;2.03;;;;;;;4.81;86.91;96610.09;5014904;28;20608;-77
2024/01/23 07:04:44;;;;;;;10.70;2.30;;;;;;;4.78;87.53;96617.19;5032271;28;20299;-77
2024/01/23 07:07:09;;;;;;;11.50;2.90;;;;;;;4.77;87.41;96633.50;4998053;28;20212;-77
2024/01/23 07:09:35;;;;;;;15.63;2.60;;;;;;;4.76;87.54;96637.00;5030063;28;20206;-77
2024/01/23 07:12:00;;;;;;;9.97;2.40;;;;;;;4.81;86.78;96637.59;5031018;28;20705;-77
2024/01/23 07:14:25;;;;;;;15.33;4.63;;;;;;;4.86;86.42;96638.16;5002570;28;20241;-77
2024/01/23 07:16:51;;;;;;;13.07;3.00;;;;;;;4.75;86.49;96640.50;5030756;28;20265;-77
2024/01/23 07:19:16;;;;;;;20.47;8.87;;;;;;;4.87;85.74;96644.16;5030321;28;20209;-77
2024/01/23 07:21:41;;;;;;;19.07;6.40;;;;;;;4.89;85.70;96644.88;5005011;28;20197;-77
2024/01/23 07:24:07;;;;;;;16.67;6.07;;;;;;;5.03;84.85;96626.91;5008145;28;20178;-77
2024/01/23 07:26:32;;;;;;;16.53;4.97;;;;;;;5.04;84.72;96651.75;5042502;28;20194;-77
2024/01/23 07:28:58;;;;;;;12.80;4.87;;;;;;;4.99;84.58;96654.56;5014850;28;20218;-77
2024/01/23 07:31:23;;;;;;;11.27;3.03;;;;;;;5.01;84.74;96664.78;5002570;28;20291;-77
2024/01/23 07:33:48;;;;;;;8.30;3.10;;;;;;;5.05;85.12;96661.97;5006569;28;20187;-77
2024/01/23 07:36:14;;;;;;;16.07;3.20;;;;;;;4.90;85.45;96657.66;5002429;28;20261;-77
2024/01/23 07:38:39;;;;;;;44.90;17.43;;;;;;;4.93;85.20;96662.63;5011209;28;20193;-77
2024/01/23 07:41:04;;;;;;;16.03;4.80;;;;;;;5.22;84.51;96662.75;5012957;28;20286;-77
2024/01/23 07:43:30;;;;;;;14.33;3.83;;;;;;;5.14;84.73;96668.34;5032386;28;20249;-77
2024/01/23 07:45:55;;;;;;;15.83;6.00;;;;;;;5.25;83.79;96662.56;5006111;28;20190;-77
2024/01/23 07:48:21;;;;;;;17.07;4.50;;;;;;;5.14;84.07;96668.34;5009929;28;20198;-77
2024/01/23 07:50:46;;;;;;;39.80;14.23;;;;;;;5.10;83.77;96669.41;5012560;28;20214;-77
2024/01/23 07:53:11;;;;;;;50.47;20.43;;;;;;;4.93;84.34;96662.63;5031323;28;20556;-77
2024/01/23 07:55:36;;;;;;;34.27;12.27;;;;;;;4.66;84.96;96670.13;5030413;28;20641;-77
2024/01/23 07:58:02;;;;;;;12.93;4.33;;;;;;;4.91;84.18;96664.47;5031396;28;20179;-77
2024/01/23 08:00:27;;;;;;;11.90;3.63;;;;;;;4.84;84.60;96663.97;5013762;28;20233;-77
2024/01/23 08:02:53;;;;;;;13.80;3.63;;;;;;;4.86;84.67;96671.63;5013927;28;20194;-77
2024/01/23 08:05:18;;;;;;;17.87;5.50;;;;;;;4.90;84.74;96667.97;5013782;28;20202;-77
2024/01/23 08:07:44;;;;;;;11.40;3.70;;;;;;;4.95;85.12;96665.97;5030937;28;20206;-77
2024/01/23 08:10:09;;;;;;;15.23;2.70;;;;;;;5.06;84.70;96673.91;5013391;28;20281;-77
2024/01/23 08:12:34;;;;;;;12.73;2.53;;;;;;;4.91;85.22;96673.94;5005824;28;20186;-77
2024/01/23 08:14:59;;;;;;;7.53;2.80;;;;;;;4.99;85.35;96674.34;5028900;28;20269;-77
2024/01/23 08:17:26;;;;;;;11.83;2.20;;;;;;;5.08;84.92;96684.13;5028981;28;20237;-77
2024/01/23 08:19:51;;;;;;;5.27;1.83;;;;;;;4.94;85.50;96686.63;5031785;28;20635;-77
2024/01/23 08:22:16;;;;;;;10.27;1.80;;;;;;;4.99;85.06;96690.63;5015836;28;20344;-77
2024/01/23 08:24:42;;;;;;;9.30;2.47;;;;;;;5.04;84.19;96692.94;5032337;28;20189;-77
2024/01/23 08:27:07;;;;;;;13.77;2.50;;;;;;;5.10;84.18;96700.31;5033703;28;20611;-77
2024/01/23 08:29:33;;;;;;;10.07;2.37;;;;;;;5.11;83.85;96689.91;5032197;28;20218;-77
2024/01/23 08:31:59;;;;;;;13.17;2.30;;;;;;;5.17;83.82;96691.31;5015957;28;20244;-77
2024/01/23 08:34:24;;;;;;;7.30;1.93;;;;;;;5.16;83.60;96684.53;5015894;28;20217;-77
2024/01/23 08:36:49;;;;;;;9.93;2.10;;;;;;;5.20;83.04;96688.56;5033267;28;20197;-77
2024/01/23 08:39:15;;;;;;;13.73;3.10;;;;;;;5.34;82.73;96693.78;5010206;28;20202;-77
2024/01/23 08:41:41;;;;;;;8.93;1.73;;;;;;;5.23;83.88;96693.56;5016082;28;20192;-77
2024/01/23 08:44:06;;;;;;;8.17;2.20;;;;;;;5.32;83.22;96705.91;4999437;28;20567;-77
2024/01/23 08:46:31;;;;;;;12.90;2.63;;;;;;;5.43;83.09;96707.03;5016591;28;20198;-77
2024/01/23 08:48:57;;;;;;;13.50;2.53;;;;;;;5.51;83.31;96702.28;5016089;28;20626;-77
2024/01/23 08:51:24;;;;;;;8.77;2.17;;;;;;;5.49;82.97;96711.84;5001818;28;20370;-79
2024/01/23 08:53:50;;;;;;;11.23;2.00;;;;;;;5.68;82.39;96726.16;5033306;28;20193;-79
2024/01/23 08:56:18;;;;;;;9.50;2.70;;;;;;;5.73;81.90;96725.06;5011830;28;20190;-79
2024/01/23 08:58:44;;;;;;;11.07;2.10;;;;;;;5.64;82.53;96731.56;5016373;28;20196;-79
2024/01/23 09:01:09;;;;;;;9.30;2.27;;;;;;;5.71;82.10;96732.88;5016559;28;20295;-79
2024/01/23 09:03:34;;;;;;;7.93;1.70;;;;;;;5.72;81.31;96734.53;5004718;28;20194;-79
2024/01/23 09:06:00;;;;;;;11.30;2.17;;;;;;;5.85;80.88;96747.56;5016913;28;20608;-80
2024/01/23 09:08:25;;;;;;;10.67;2.50;;;;;;;5.44;82.18;96740.44;5015674;28;20214;-77
2024/01/23 09:10:50;;;;;;;10.20;2.07;;;;;;;5.37;82.80;96750.25;5032840;28;20202;-77
2024/01/23 09:13:18;;;;;;;11.23;2.03;;;;;;;5.65;83.22;96764.16;5032297;28;20287;-77
2024/01/23 09:15:43;;;;;;;5.87;2.33;;;;;;;5.59;83.62;96761.94;5015648;28;20598;-77
2024/01/23 09:18:08;;;;;;;8.67;2.53;;;;;;;5.69;82.92;96765.66;5016587;28;20181;-77
2024/01/23 09:20:34;;;;;;;9.10;1.83;;;;;;;5.91;82.06;96765.25;5007460;28;20213;-77
2024/01/23 09:22:59;;;;;;;8.23;2.13;;;;;;;5.97;81.97;96772.63;5034193;28;20242;-77
2024/01/23 09:25:24;;;;;;;5.80;1.87;;;;;;;5.94;82.93;96783.97;5032386;28;20190;-77
2024/01/23 09:27:50;;;;;;;8.13;2.60;;;;;;;6.02;82.02;96793.00;5015703;28;20206;-78
2024/01/23 09:30:15;;;;;;;8.93;2.10;;;;;;;6.01;82.04;96793.91;5015565;28;20210;-78
2024/01/23 09:32:41;;;;;;;5.37;1.70;;;;;;;6.00;82.21;96794.81;5034464;28;20194;-78
2024/01/23 09:35:06;;;;;;;9.43;2.63;;;;;;;5.90;82.05;96787.63;5016145;28;20205;-77
2024/01/23 09:37:32;;;;;;;8.93;2.47;;;;;;;5.92;81.77;96810.78;5033686;28;20217;-77
2024/01/23 09:39:57;;;;;;;13.47;2.67;;;;;;;6.20;80.33;96812.56;5031974;28;20225;-77
2024/01/23 09:42:23;;;;;;;14.90;4.43;;;;;;;6.20;80.11;96804.84;5016038;28;20182;-77
2024/01/23 09:44:50;;;;;;;10.53;3.60;;;;;;;6.58;79.23;96824.94;5032437;28;20186;-77
2024/01/23 09:47:16;;;;;;;8.00;2.20;;;;;;;6.60;78.41;96833.41;5009705;28;20222;-77
2024/01/23 09:49:41;;;;;;;12.97;3.57;;;;;;;6.76;77.98;96823.84;4976691;28;20696;-77
2024/01/23 09:52:07;;;;;;;13.77;2.77;;;;;;;6.81;77.16;96826.97;5033519;28;20216;-77
2024/01/23 09:54:33;;;;;;;12.23;2.83;;;;;;;6.74;77.34;96830.84;5016173;28;20686;-77
2024/01/23 09:56:59;;;;;;;11.77;3.10;;;;;;;6.60;77.20;96836.00;5032595;28;20201;-77
2024/01/23 09:59:24;;;;;;;9.93;2.77;;;;;;;6.82;76.09;96826.06;5032296;28;20182;-77
2024/01/23 10:01:50;;;;;;;14.43;3.93;;;;;;;6.67;75.53;96808.91;5033334;28;20189;-77
2024/01/23 10:04:17;;;;;;;7.87;3.57;;;;;;;7.02;74.95;96828.22;5014309;28;20191;-77
2024/01/23 10:06:42;;;;;;;9.97;2.37;;;;;;;6.75;75.15;96825.59;5007631;28;20189;-77
2024/01/23 10:09:07;;;;;;;13.63;3.73;;;;;;;6.85;74.45;96825.03;5033060;28;20198;-77
2024/01/23 10:11:34;;;;;;;16.13;2.80;;;;;;;6.95;74.66;96826.94;5031744;28;20190;-77
2024/01/23 10:14:01;;;;;;;14.47;4.13;;;;;;;6.91;74.84;96828.06;5028676;28;20194;-77
2024/01/23 10:16:29;;;;;;;12.20;2.87;;;;;;;6.67;75.32;96839.88;5020899;28;20206;-78
2024/01/23 10:18:54;;;;;;;12.80;3.63;;;;;;;6.34;76.42;96837.53;5032093;28;20178;-77
2024/01/23 10:21:21;;;;;;;12.80;3.17;;;;;;;6.59;75.15;96853.25;5032378;28;20198;-77
2024/01/23 10:23:51;;;;;;;13.40;4.37;;;;;;;6.58;74.07;96840.44;5015270;28;20194;-77
2024/01/23 10:26:20;;;;;;;18.67;3.87;;;;;;;6.60;74.61;96836.81;5032312;28;20278;-77
2024/01/23 10:28:46;;;;;;;19.43;3.70;;;;;;;6.61;74.66;96835.91;4997064;28;20202;-77
2024/01/23 10:31:12;;;;;;;8.27;2.87;;;;;;;6.76;73.98;96839.31;4998150;28;20202;-77
2024/01/23 10:33:38;;;;;;;13.73;2.70;;;;;;;6.31;74.06;96846.31;5033026;28;20217;-77
2024/01/23 10:36:08;;;;;;;13.47;2.93;;;;;;;6.30;74.01;96834.31;5014932;28;20186;-77
2024/01/23 10:38:35;;;;;;;13.53;2.80;;;;;;;6.72;72.46;96845.59;5004896;28;20645;-77
2024/01/23 10:41:02;;;;;;;13.43;2.73;;;;;;;6.69;72.40;96841.44;5020741;28;20210;-77
2024/01/23 10:43:29;;;;;;;16.50;3.33;;;;;;;6.24;73.48;96834.69;5013576;28;20190;-75
2024/01/23 10:45:55;;;;;;;12.70;3.20;;;;;;;6.47;72.58;96841.06;5029399;28;20182;-77
2024/01/23 10:48:20;;;;;;;10.63;2.83;;;;;;;6.56;72.97;96850.03;5009255;28;20281;-76
2024/01/23 10:50:48;;;;;;;11.80;2.73;;;;;;;6.50;72.00;96831.38;5023193;28;20360;-78
2024/01/23 10:53:15;;;;;;;13.40;3.20;;;;;;;6.74;72.04;96844.59;5014531;28;20194;-77
2024/01/23 10:55:43;;;;;;;10.93;2.70;;;;;;;6.49;72.69;96829.72;5009370;28;20179;-77
2024/01/23 10:58:35;;;;;;;11.00;2.87;;;;;;;6.32;72.08;96836.81;5014096;28;20278;-75
2024/01/23 11:01:03;;;;;;;11.60;2.60;;;;;;;6.11;73.70;96838.91;5008743;28;20701;-77
2024/01/23 11:03:30;;;;;;;11.27;2.23;;;;;;;6.31;73.16;96824.84;5029405;28;20308;-77
2024/01/23 11:05:59;;;;;;;12.17;2.90;;;;;;;6.44;72.82;96826.59;5010293;28;20237;-77
2024/01/23 11:08:28;;;;;;;16.97;2.97;;;;;;;6.53;72.66;96836.34;5006972;28;20221;-77
2024/01/23 11:11:09;;;;;;;16.53;3.03;;;;;;;6.50;72.55;96830.56;5013497;28;20198;-77
2024/01/23 11:13:38;;;;;;;16.97;3.63;;;;;;;6.38;73.03;96832.13;5013307;28;20240;-77
2024/01/23 11:16:06;;;;;;;13.17;3.93;;;;;;;5.96;73.39;96835.44;5014574;28;20655;-77
2024/01/23 11:18:32;;;;;;;16.80;3.43;;;;;;;6.00;73.39;96836.09;5014372;28;20183;-77
2024/01/23 11:21:18;;;;;;;17.67;4.73;;;;;;;6.21;72.66;96832.28;5028465;28;20202;-77
2024/01/23 11:23:45;;;;;;;17.37;3.17;;;;;;;6.36;72.35;96831.41;4992869;28;20198;-77
2024/01/23 11:26:16;;;;;;;12.83;3.33;;;;;;;6.63;71.69;96836.66;5029104;28;20625;-77
2024/01/23 11:28:45;;;;;;;15.67;3.83;;;;;;;6.52;71.98;96837.28;5028961;28;20264;-77
2024/01/23 11:31:21;;;;;;;13.57;3.23;;;;;;;6.60;71.70;96830.84;5011566;28;20207;-77